Skip Navigation Links Skip Navigation Links

Current Weather

Archangel'Sk, Archangel, Russia

For information only: do not use for flight planning or navigation.
Latest weather
Observation time Sunday, May 26, 2019 6:30 PM MSK
Local time Sunday, May 26, 2019 7:10 PM MSK
Flight conditions Instrument Meteorological Conditions
Winds
Wind direction West-Northwest (300°)
Winds variable from 270° to 330°
Wind speed 11 mph
Visibility 5.6 mi.
Present weather light rain showers
Sky condition
Ceiling 600 ft. broken clouds with cumulonimbus
Cloud layer broken clouds with cumulonimbus 600 ft.
Temperature 48°F
Dewpoint 46°F
Altimeter 29.41 in.Hg
Precipitation
QB 9:00 PM
QF 6:25 AM
Derived measurements
Relative humidity 93%
Wind chill 43°F
Density altitude 51 ft.
Remarks
No significant changes expected in the next two hours.
METAR ULAA 261530Z 30005MPS 270V330 9000 -SHRA BKN006CB 09/08 Q0996 R26/290060 NOSIG RMK QBB180 QFE745/0994

Settings

Location code

InnerDrive.Weather 4.0.6770.0 Release CLR 4.0.30319.42000
Copyright ©2018 Inner Drive Technology. All rights reserved. Portions Copyright ©1986-2018 David Braverman.

Find weather

Site navigation


Skip Navigation Links

Place info

Page info

PayPal - The safer, easier way to pay online!

Return home.

Copyright ©2019 Inner Drive Technology. Purveyors of fine, hand-crafted computer software. Page printed 2019-05-26T16:10:41 UTC.